sensor_id;sensor_type;location;lat;lon;timestamp;P1;durP1;ratioP1;P2;durP2;ratioP2
57800;SDS011;43627;42.728;23.256;2022-09-12T00:01:49;11.15;;;9.75;;
57800;SDS011;43627;42.728;23.256;2022-09-12T00:04:16;11.40;;;10.23;;
57800;SDS011;43627;42.728;23.256;2022-09-12T00:06:43;11.75;;;10.27;;
57800;SDS011;43627;42.728;23.256;2022-09-12T00:09:11;13.32;;;11.95;;
57800;SDS011;43627;42.728;23.256;2022-09-12T00:11:40;12.45;;;11.15;;
57800;SDS011;43627;42.728;23.256;2022-09-12T00:14:09;12.52;;;11.18;;
57800;SDS011;43627;42.728;23.256;2022-09-12T00:16:38;13.20;;;11.10;;
57800;SDS011;43627;42.728;23.256;2022-09-12T00:19:05;12.27;;;10.02;;
57800;SDS011;43627;42.728;23.256;2022-09-12T00:21:33;12.30;;;10.43;;
57800;SDS011;43627;42.728;23.256;2022-09-12T00:24:01;16.80;;;10.30;;
57800;SDS011;43627;42.728;23.256;2022-09-12T00:26:28;14.90;;;10.18;;
57800;SDS011;43627;42.728;23.256;2022-09-12T00:28:54;11.43;;;10.23;;
57800;SDS011;43627;42.728;23.256;2022-09-12T00:31:22;16.58;;;9.55;;
57800;SDS011;43627;42.728;23.256;2022-09-12T00:33:50;13.32;;;9.70;;
57800;SDS011;43627;42.728;23.256;2022-09-12T00:36:19;12.63;;;8.80;;
57800;SDS011;43627;42.728;23.256;2022-09-12T00:38:48;10.57;;;9.40;;
57800;SDS011;43627;42.728;23.256;2022-09-12T00:41:17;13.52;;;9.65;;
57800;SDS011;43627;42.728;23.256;2022-09-12T00:43:48;11.73;;;9.55;;
57800;SDS011;43627;42.728;23.256;2022-09-12T00:52:07;11.23;;;9.52;;
57800;SDS011;43627;42.728;23.256;2022-09-12T00:54:38;10.38;;;8.98;;
57800;SDS011;43627;42.728;23.256;2022-09-12T00:57:13;12.85;;;9.63;;
57800;SDS011;43627;42.728;23.256;2022-09-12T01:02:50;10.23;;;9.07;;
57800;SDS011;43627;42.728;23.256;2022-09-12T01:05:22;9.73;;;8.60;;
57800;SDS011;43627;42.728;23.256;2022-09-12T01:07:52;9.18;;;7.82;;
57800;SDS011;43627;42.728;23.256;2022-09-12T01:10:19;9.85;;;7.95;;
57800;SDS011;43627;42.728;23.256;2022-09-12T01:12:46;11.52;;;8.38;;
57800;SDS011;43627;42.728;23.256;2022-09-12T01:15:13;9.75;;;8.20;;
57800;SDS011;43627;42.728;23.256;2022-09-12T01:20:30;9.18;;;8.00;;
57800;SDS011;43627;42.728;23.256;2022-09-12T01:26:10;10.00;;;8.25;;
57800;SDS011;43627;42.728;23.256;2022-09-12T01:31:40;12.10;;;8.75;;
57800;SDS011;43627;42.728;23.256;2022-09-12T01:34:23;11.05;;;8.15;;
57800;SDS011;43627;42.728;23.256;2022-09-12T01:42:44;14.48;;;8.95;;
57800;SDS011;43627;42.728;23.256;2022-09-12T01:47:57;11.07;;;7.75;;
57800;SDS011;43627;42.728;23.256;2022-09-12T01:50:32;15.70;;;9.07;;
57800;SDS011;43627;42.728;23.256;2022-09-12T01:53:07;12.93;;;8.32;;
57800;SDS011;43627;42.728;23.256;2022-09-12T01:55:44;10.20;;;8.63;;
57800;SDS011;43627;42.728;23.256;2022-09-12T01:58:24;11.15;;;9.15;;
57800;SDS011;43627;42.728;23.256;2022-09-12T02:00:57;17.67;;;8.95;;
57800;SDS011;43627;42.728;23.256;2022-09-12T02:03:30;13.85;;;8.75;;
57800;SDS011;43627;42.728;23.256;2022-09-12T02:06:11;14.13;;;9.20;;
57800;SDS011;43627;42.728;23.256;2022-09-12T02:08:46;11.30;;;8.63;;
57800;SDS011;43627;42.728;23.256;2022-09-12T02:11:17;12.05;;;8.88;;
57800;SDS011;43627;42.728;23.256;2022-09-12T02:13:51;10.25;;;8.38;;
57800;SDS011;43627;42.728;23.256;2022-09-12T02:16:36;10.60;;;8.38;;
57800;SDS011;43627;42.728;23.256;2022-09-12T02:19:08;11.35;;;8.00;;
57800;SDS011;43627;42.728;23.256;2022-09-12T02:21:51;9.27;;;8.27;;
57800;SDS011;43627;42.728;23.256;2022-09-12T02:24:21;8.35;;;7.18;;
57800;SDS011;43627;42.728;23.256;2022-09-12T02:26:55;9.20;;;7.60;;
57800;SDS011;43627;42.728;23.256;2022-09-12T02:29:28;11.52;;;7.75;;
57800;SDS011;43627;42.728;23.256;2022-09-12T02:31:59;11.88;;;7.55;;
57800;SDS011;43627;42.728;23.256;2022-09-12T02:34:48;11.50;;;7.93;;
57800;SDS011;43627;42.728;23.256;2022-09-12T02:37:22;9.93;;;7.82;;
57800;SDS011;43627;42.728;23.256;2022-09-12T02:39:59;65.25;;;15.55;;
57800;SDS011;43627;42.728;23.256;2022-09-12T02:42:26;8.85;;;6.80;;
57800;SDS011;43627;42.728;23.256;2022-09-12T02:44:53;8.27;;;7.05;;
57800;SDS011;43627;42.728;23.256;2022-09-12T02:47:24;11.23;;;7.30;;
57800;SDS011;43627;42.728;23.256;2022-09-12T02:49:59;11.25;;;7.00;;
57800;SDS011;43627;42.728;23.256;2022-09-12T02:52:27;10.38;;;6.47;;
57800;SDS011;43627;42.728;23.256;2022-09-12T02:54:54;8.55;;;6.95;;
57800;SDS011;43627;42.728;23.256;2022-09-12T02:57:23;8.05;;;6.82;;
57800;SDS011;43627;42.728;23.256;2022-09-12T02:59:51;8.85;;;7.05;;
57800;SDS011;43627;42.728;23.256;2022-09-12T03:02:24;8.07;;;6.78;;
57800;SDS011;43627;42.728;23.256;2022-09-12T03:10:52;8.50;;;7.50;;
57800;SDS011;43627;42.728;23.256;2022-09-12T03:16:49;8.73;;;7.70;;
57800;SDS011;43627;42.728;23.256;2022-09-12T03:22:21;11.90;;;8.45;;
57800;SDS011;43627;42.728;23.256;2022-09-12T03:25:05;13.30;;;8.95;;
57800;SDS011;43627;42.728;23.256;2022-09-12T03:27:46;14.48;;;9.60;;
57800;SDS011;43627;42.728;23.256;2022-09-12T03:32:41;11.57;;;8.88;;
57800;SDS011;43627;42.728;23.256;2022-09-12T03:35:19;37.80;;;34.40;;
57800;SDS011;43627;42.728;23.256;2022-09-12T03:37:48;11.07;;;9.48;;
57800;SDS011;43627;42.728;23.256;2022-09-12T03:40:16;12.07;;;9.68;;
57800;SDS011;43627;42.728;23.256;2022-09-12T03:42:43;12.98;;;8.95;;
57800;SDS011;43627;42.728;23.256;2022-09-12T03:45:09;13.65;;;9.88;;
57800;SDS011;43627;42.728;23.256;2022-09-12T03:47:36;13.68;;;10.00;;
57800;SDS011;43627;42.728;23.256;2022-09-12T03:50:03;11.15;;;9.95;;
57800;SDS011;43627;42.728;23.256;2022-09-12T03:52:31;12.75;;;9.38;;
57800;SDS011;43627;42.728;23.256;2022-09-12T03:54:58;13.38;;;8.82;;
57800;SDS011;43627;42.728;23.256;2022-09-12T03:57:25;10.82;;;8.85;;
57800;SDS011;43627;42.728;23.256;2022-09-12T03:59:51;11.32;;;9.20;;
57800;SDS011;43627;42.728;23.256;2022-09-12T04:02:18;14.45;;;8.57;;
57800;SDS011;43627;42.728;23.256;2022-09-12T04:04:45;12.10;;;8.73;;
57800;SDS011;43627;42.728;23.256;2022-09-12T04:07:14;9.90;;;8.68;;
57800;SDS011;43627;42.728;23.256;2022-09-12T04:09:41;9.70;;;8.57;;
57800;SDS011;43627;42.728;23.256;2022-09-12T04:12:08;11.30;;;9.20;;
57800;SDS011;43627;42.728;23.256;2022-09-12T04:14:34;14.07;;;8.50;;
57800;SDS011;43627;42.728;23.256;2022-09-12T04:17:01;14.93;;;8.73;;
57800;SDS011;43627;42.728;23.256;2022-09-12T04:19:27;10.13;;;7.82;;
57800;SDS011;43627;42.728;23.256;2022-09-12T04:21:54;9.93;;;7.45;;
57800;SDS011;43627;42.728;23.256;2022-09-12T04:24:21;11.35;;;7.50;;
57800;SDS011;43627;42.728;23.256;2022-09-12T04:26:48;8.77;;;7.22;;
57800;SDS011;43627;42.728;23.256;2022-09-12T04:29:14;10.13;;;8.18;;
57800;SDS011;43627;42.728;23.256;2022-09-12T04:31:41;12.88;;;7.82;;
57800;SDS011;43627;42.728;23.256;2022-09-12T04:34:08;11.45;;;8.00;;
57800;SDS011;43627;42.728;23.256;2022-09-12T04:36:36;9.10;;;7.40;;
57800;SDS011;43627;42.728;23.256;2022-09-12T04:39:04;10.93;;;7.30;;
57800;SDS011;43627;42.728;23.256;2022-09-12T04:41:33;8.90;;;6.88;;
57800;SDS011;43627;42.728;23.256;2022-09-12T04:44:12;15.02;;;8.05;;
57800;SDS011;43627;42.728;23.256;2022-09-12T04:46:43;9.27;;;7.63;;
57800;SDS011;43627;42.728;23.256;2022-09-12T04:49:12;13.02;;;8.65;;
57800;SDS011;43627;42.728;23.256;2022-09-12T04:51:41;15.48;;;8.35;;
57800;SDS011;43627;42.728;23.256;2022-09-12T04:54:13;9.73;;;7.30;;
57800;SDS011;43627;42.728;23.256;2022-09-12T04:56:42;9.57;;;7.95;;
57800;SDS011;43627;42.728;23.256;2022-09-12T04:59:10;9.90;;;7.45;;
57800;SDS011;43627;42.728;23.256;2022-09-12T05:01:38;12.48;;;8.65;;
57800;SDS011;43627;42.728;23.256;2022-09-12T05:04:05;15.60;;;7.63;;
57800;SDS011;43627;42.728;23.256;2022-09-12T05:06:33;10.05;;;7.80;;
57800;SDS011;43627;42.728;23.256;2022-09-12T05:09:02;8.57;;;6.13;;
57800;SDS011;43627;42.728;23.256;2022-09-12T05:11:32;7.18;;;4.65;;
57800;SDS011;43627;42.728;23.256;2022-09-12T05:14:21;5.38;;;4.80;;
57800;SDS011;43627;42.728;23.256;2022-09-12T05:16:48;5.53;;;4.93;;
57800;SDS011;43627;42.728;23.256;2022-09-12T05:19:15;6.38;;;4.15;;
57800;SDS011;43627;42.728;23.256;2022-09-12T05:21:42;4.63;;;4.22;;
57800;SDS011;43627;42.728;23.256;2022-09-12T05:24:09;8.73;;;4.10;;
57800;SDS011;43627;42.728;23.256;2022-09-12T05:26:36;5.28;;;4.20;;
57800;SDS011;43627;42.728;23.256;2022-09-12T05:29:03;4.63;;;4.20;;
57800;SDS011;43627;42.728;23.256;2022-09-12T05:31:31;9.27;;;4.93;;
57800;SDS011;43627;42.728;23.256;2022-09-12T05:33:58;5.10;;;4.40;;
57800;SDS011;43627;42.728;23.256;2022-09-12T05:36:25;4.45;;;4.03;;
57800;SDS011;43627;42.728;23.256;2022-09-12T05:38:54;6.57;;;4.20;;
57800;SDS011;43627;42.728;23.256;2022-09-12T05:41:22;7.38;;;4.38;;
57800;SDS011;43627;42.728;23.256;2022-09-12T05:43:54;7.78;;;4.45;;
57800;SDS011;43627;42.728;23.256;2022-09-12T05:46:27;4.93;;;3.78;;
57800;SDS011;43627;42.728;23.256;2022-09-12T05:48:55;3.67;;;2.97;;
57800;SDS011;43627;42.728;23.256;2022-09-12T05:51:24;3.63;;;3.00;;
57800;SDS011;43627;42.728;23.256;2022-09-12T05:53:54;4.20;;;3.33;;
57800;SDS011;43627;42.728;23.256;2022-09-12T05:56:23;3.72;;;3.28;;
57800;SDS011;43627;42.728;23.256;2022-09-12T05:58:56;5.40;;;3.60;;
57800;SDS011;43627;42.728;23.256;2022-09-12T06:01:25;3.83;;;3.22;;
57800;SDS011;43627;42.728;23.256;2022-09-12T06:03:53;4.18;;;3.50;;
57800;SDS011;43627;42.728;23.256;2022-09-12T06:06:22;4.20;;;3.15;;
57800;SDS011;43627;42.728;23.256;2022-09-12T06:08:50;4.40;;;3.92;;
57800;SDS011;43627;42.728;23.256;2022-09-12T06:11:19;5.50;;;4.38;;
57800;SDS011;43627;42.728;23.256;2022-09-12T06:13:48;6.97;;;3.85;;
57800;SDS011;43627;42.728;23.256;2022-09-12T06:16:23;5.57;;;4.28;;
57800;SDS011;43627;42.728;23.256;2022-09-12T06:18:55;4.85;;;4.25;;
57800;SDS011;43627;42.728;23.256;2022-09-12T06:21:23;7.90;;;3.72;;
57800;SDS011;43627;42.728;23.256;2022-09-12T06:23:53;7.38;;;4.68;;
57800;SDS011;43627;42.728;23.256;2022-09-12T06:26:20;8.43;;;4.30;;
57800;SDS011;43627;42.728;23.256;2022-09-12T06:28:50;6.03;;;4.28;;
57800;SDS011;43627;42.728;23.256;2022-09-12T06:31:18;5.13;;;4.10;;
57800;SDS011;43627;42.728;23.256;2022-09-12T06:33:51;6.93;;;4.50;;
57800;SDS011;43627;42.728;23.256;2022-09-12T06:36:20;5.25;;;4.72;;
57800;SDS011;43627;42.728;23.256;2022-09-12T06:38:53;4.88;;;4.38;;
57800;SDS011;43627;42.728;23.256;2022-09-12T06:41:22;8.30;;;4.63;;
57800;SDS011;43627;42.728;23.256;2022-09-12T06:43:50;5.85;;;4.63;;
57800;SDS011;43627;42.728;23.256;2022-09-12T06:46:17;8.60;;;4.97;;
57800;SDS011;43627;42.728;23.256;2022-09-12T06:48:44;5.30;;;4.43;;
57800;SDS011;43627;42.728;23.256;2022-09-12T06:51:12;9.98;;;4.72;;
57800;SDS011;43627;42.728;23.256;2022-09-12T06:53:41;5.55;;;4.22;;
57800;SDS011;43627;42.728;23.256;2022-09-12T06:56:11;8.30;;;4.78;;
57800;SDS011;43627;42.728;23.256;2022-09-12T06:58:39;6.85;;;4.82;;
57800;SDS011;43627;42.728;23.256;2022-09-12T07:01:18;15.98;;;4.50;;
57800;SDS011;43627;42.728;23.256;2022-09-12T07:03:49;5.80;;;3.15;;
57800;SDS011;43627;42.728;23.256;2022-09-12T07:06:19;5.80;;;3.47;;
57800;SDS011;43627;42.728;23.256;2022-09-12T07:08:47;4.88;;;3.83;;
57800;SDS011;43627;42.728;23.256;2022-09-12T07:11:20;4.00;;;3.60;;
57800;SDS011;43627;42.728;23.256;2022-09-12T07:13:50;4.45;;;4.03;;
57800;SDS011;43627;42.728;23.256;2022-09-12T07:16:18;3.80;;;3.50;;
57800;SDS011;43627;42.728;23.256;2022-09-12T07:18:52;4.70;;;4.15;;
57800;SDS011;43627;42.728;23.256;2022-09-12T07:21:26;4.97;;;4.00;;
57800;SDS011;43627;42.728;23.256;2022-09-12T07:23:53;3.97;;;3.53;;
57800;SDS011;43627;42.728;23.256;2022-09-12T07:26:26;6.43;;;4.45;;
57800;SDS011;43627;42.728;23.256;2022-09-12T07:28:54;5.13;;;4.40;;
57800;SDS011;43627;42.728;23.256;2022-09-12T07:31:38;5.50;;;4.63;;
57800;SDS011;43627;42.728;23.256;2022-09-12T07:34:05;5.25;;;4.75;;
57800;SDS011;43627;42.728;23.256;2022-09-12T07:36:32;5.53;;;5.03;;
57800;SDS011;43627;42.728;23.256;2022-09-12T07:38:59;5.50;;;4.50;;
57800;SDS011;43627;42.728;23.256;2022-09-12T07:41:27;4.72;;;4.32;;
57800;SDS011;43627;42.728;23.256;2022-09-12T07:43:56;5.53;;;4.63;;
57800;SDS011;43627;42.728;23.256;2022-09-12T07:46:24;5.53;;;4.38;;
57800;SDS011;43627;42.728;23.256;2022-09-12T07:48:53;6.25;;;4.70;;
57800;SDS011;43627;42.728;23.256;2022-09-12T07:51:21;4.50;;;4.07;;
57800;SDS011;43627;42.728;23.256;2022-09-12T07:53:49;5.75;;;4.43;;
57800;SDS011;43627;42.728;23.256;2022-09-12T07:56:17;4.32;;;3.92;;
57800;SDS011;43627;42.728;23.256;2022-09-12T07:58:45;4.82;;;4.32;;
57800;SDS011;43627;42.728;23.256;2022-09-12T08:01:16;4.47;;;4.07;;
57800;SDS011;43627;42.728;23.256;2022-09-12T08:03:45;4.43;;;4.03;;
57800;SDS011;43627;42.728;23.256;2022-09-12T08:06:14;4.32;;;3.85;;
57800;SDS011;43627;42.728;23.256;2022-09-12T08:08:45;5.38;;;3.58;;
57800;SDS011;43627;42.728;23.256;2022-09-12T08:11:14;3.65;;;3.10;;
57800;SDS011;43627;42.728;23.256;2022-09-12T08:13:42;8.70;;;3.83;;
57800;SDS011;43627;42.728;23.256;2022-09-12T08:16:19;3.78;;;3.35;;
57800;SDS011;43627;42.728;23.256;2022-09-12T08:18:47;3.83;;;3.33;;
57800;SDS011;43627;42.728;23.256;2022-09-12T08:21:15;5.28;;;3.47;;
57800;SDS011;43627;42.728;23.256;2022-09-12T08:23:51;5.88;;;3.45;;
57800;SDS011;43627;42.728;23.256;2022-09-12T08:26:19;5.53;;;3.10;;
57800;SDS011;43627;42.728;23.256;2022-09-12T08:28:46;3.70;;;3.40;;
57800;SDS011;43627;42.728;23.256;2022-09-12T08:31:14;6.03;;;3.03;;
57800;SDS011;43627;42.728;23.256;2022-09-12T08:33:43;4.45;;;3.10;;
57800;SDS011;43627;42.728;23.256;2022-09-12T08:36:11;3.90;;;3.35;;
57800;SDS011;43627;42.728;23.256;2022-09-12T08:38:43;5.85;;;3.60;;
57800;SDS011;43627;42.728;23.256;2022-09-12T08:41:13;6.35;;;3.30;;
57800;SDS011;43627;42.728;23.256;2022-09-12T08:46:43;2.95;;;2.65;;
57800;SDS011;43627;42.728;23.256;2022-09-12T08:52:40;4.82;;;3.42;;
57800;SDS011;43627;42.728;23.256;2022-09-12T08:55:04;3.70;;;3.30;;
57800;SDS011;43627;42.728;23.256;2022-09-12T08:57:50;3.67;;;3.38;;
57800;SDS011;43627;42.728;23.256;2022-09-12T09:00:17;4.72;;;3.22;;
57800;SDS011;43627;42.728;23.256;2022-09-12T09:05:28;4.10;;;3.53;;
57800;SDS011;43627;42.728;23.256;2022-09-12T09:08:10;4.13;;;3.53;;
57800;SDS011;43627;42.728;23.256;2022-09-12T09:10:50;8.25;;;4.72;;
57800;SDS011;43627;42.728;23.256;2022-09-12T09:13:28;4.40;;;4.00;;
57800;SDS011;43627;42.728;23.256;2022-09-12T09:19:01;5.20;;;4.70;;
57800;SDS011;43627;42.728;23.256;2022-09-12T09:21:37;4.13;;;3.72;;
57800;SDS011;43627;42.728;23.256;2022-09-12T09:24:09;4.40;;;4.00;;
57800;SDS011;43627;42.728;23.256;2022-09-12T09:26:52;4.45;;;4.05;;
57800;SDS011;43627;42.728;23.256;2022-09-12T09:29:21;6.25;;;4.40;;
57800;SDS011;43627;42.728;23.256;2022-09-12T09:31:53;6.65;;;3.83;;
57800;SDS011;43627;42.728;23.256;2022-09-12T09:34:27;5.28;;;3.60;;
57800;SDS011;43627;42.728;23.256;2022-09-12T09:42:03;3.47;;;3.10;;
57800;SDS011;43627;42.728;23.256;2022-09-12T09:44:42;4.00;;;3.10;;
57800;SDS011;43627;42.728;23.256;2022-09-12T09:47:12;4.38;;;3.70;;
57800;SDS011;43627;42.728;23.256;2022-09-12T09:49:39;3.40;;;3.10;;
57800;SDS011;43627;42.728;23.256;2022-09-12T09:52:06;4.95;;;4.28;;
57800;SDS011;43627;42.728;23.256;2022-09-12T09:54:41;4.40;;;2.83;;
57800;SDS011;43627;42.728;23.256;2022-09-12T09:57:37;5.60;;;3.08;;
57800;SDS011;43627;42.728;23.256;2022-09-12T10:02:57;3.35;;;3.05;;
57800;SDS011;43627;42.728;23.256;2022-09-12T10:05:31;3.20;;;2.90;;
57800;SDS011;43627;42.728;23.256;2022-09-12T10:08:01;5.20;;;3.75;;
57800;SDS011;43627;42.728;23.256;2022-09-12T10:10:29;3.72;;;3.42;;
57800;SDS011;43627;42.728;23.256;2022-09-12T10:13:05;8.13;;;3.67;;
57800;SDS011;43627;42.728;23.256;2022-09-12T10:15:34;6.85;;;3.80;;
57800;SDS011;43627;42.728;23.256;2022-09-12T10:18:01;6.38;;;4.93;;
57800;SDS011;43627;42.728;23.256;2022-09-12T10:22:59;7.13;;;4.03;;
57800;SDS011;43627;42.728;23.256;2022-09-12T10:25:27;6.85;;;3.75;;
57800;SDS011;43627;42.728;23.256;2022-09-12T10:27:57;6.97;;;3.85;;
57800;SDS011;43627;42.728;23.256;2022-09-12T10:30:26;5.10;;;3.60;;
57800;SDS011;43627;42.728;23.256;2022-09-12T10:32:58;4.75;;;2.60;;
57800;SDS011;43627;42.728;23.256;2022-09-12T10:35:41;4.68;;;3.60;;
57800;SDS011;43627;42.728;23.256;2022-09-12T10:40:56;3.67;;;3.38;;
57800;SDS011;43627;42.728;23.256;2022-09-12T10:43:34;3.88;;;3.53;;
57800;SDS011;43627;42.728;23.256;2022-09-12T10:48:41;4.25;;;3.78;;
57800;SDS011;43627;42.728;23.256;2022-09-12T10:53:51;4.53;;;3.35;;
57800;SDS011;43627;42.728;23.256;2022-09-12T10:56:20;3.92;;;3.63;;
57800;SDS011;43627;42.728;23.256;2022-09-12T11:01:35;4.28;;;3.88;;
57800;SDS011;43627;42.728;23.256;2022-09-12T11:04:23;4.30;;;3.90;;
57800;SDS011;43627;42.728;23.256;2022-09-12T11:18:52;10.00;;;3.88;;
57800;SDS011;43627;42.728;23.256;2022-09-12T11:21:31;6.00;;;4.40;;
57800;SDS011;43627;42.728;23.256;2022-09-12T11:27:02;5.00;;;3.85;;
57800;SDS011;43627;42.728;23.256;2022-09-12T11:29:51;4.30;;;3.88;;
57800;SDS011;43627;42.728;23.256;2022-09-12T11:40:49;3.65;;;3.25;;
57800;SDS011;43627;42.728;23.256;2022-09-12T11:43:42;3.80;;;2.53;;
57800;SDS011;43627;42.728;23.256;2022-09-12T11:49:03;6.72;;;3.97;;
57800;SDS011;43627;42.728;23.256;2022-09-12T11:58:06;3.95;;;3.15;;
57800;SDS011;43627;42.728;23.256;2022-09-12T12:00:21;2.90;;;2.70;;
57800;SDS011;43627;42.728;23.256;2022-09-12T12:03:14;3.33;;;2.50;;
57800;SDS011;43627;42.728;23.256;2022-09-12T12:06:13;3.00;;;2.30;;
57800;SDS011;43627;42.728;23.256;2022-09-12T12:08:44;5.55;;;2.35;;
57800;SDS011;43627;42.728;23.256;2022-09-12T12:11:14;2.15;;;1.27;;
57800;SDS011;43627;42.728;23.256;2022-09-12T12:14:04;2.17;;;1.60;;
57800;SDS011;43627;42.728;23.256;2022-09-12T12:16:38;1.80;;;1.50;;
57800;SDS011;43627;42.728;23.256;2022-09-12T12:21:51;3.08;;;2.10;;
57800;SDS011;43627;42.728;23.256;2022-09-12T12:24:19;6.38;;;3.22;;
57800;SDS011;43627;42.728;23.256;2022-09-12T12:34:34;2.70;;;2.03;;
57800;SDS011;43627;42.728;23.256;2022-09-12T12:37:48;3.53;;;2.35;;
57800;SDS011;43627;42.728;23.256;2022-09-12T12:39:58;4.57;;;2.75;;
57800;SDS011;43627;42.728;23.256;2022-09-12T12:47:32;4.47;;;2.58;;
57800;SDS011;43627;42.728;23.256;2022-09-12T12:50:13;4.80;;;2.30;;
57800;SDS011;43627;42.728;23.256;2022-09-12T12:52:49;3.40;;;2.15;;
57800;SDS011;43627;42.728;23.256;2022-09-12T12:55:24;4.95;;;2.40;;
57800;SDS011;43627;42.728;23.256;2022-09-12T12:57:59;4.07;;;3.17;;
57800;SDS011;43627;42.728;23.256;2022-09-12T13:00:34;2.83;;;2.50;;
57800;SDS011;43627;42.728;23.256;2022-09-12T13:05:41;6.82;;;3.38;;
57800;SDS011;43627;42.728;23.256;2022-09-12T13:08:10;4.10;;;3.10;;
57800;SDS011;43627;42.728;23.256;2022-09-12T13:10:58;5.93;;;3.42;;
57800;SDS011;43627;42.728;23.256;2022-09-12T13:16:36;3.35;;;2.80;;
57800;SDS011;43627;42.728;23.256;2022-09-12T13:19:07;4.70;;;3.55;;
57800;SDS011;43627;42.728;23.256;2022-09-12T13:21:53;3.70;;;3.40;;
57800;SDS011;43627;42.728;23.256;2022-09-12T13:24:28;4.43;;;3.22;;
57800;SDS011;43627;42.728;23.256;2022-09-12T13:26:54;3.35;;;3.05;;
57800;SDS011;43627;42.728;23.256;2022-09-12T13:29:23;3.40;;;3.08;;
57800;SDS011;43627;42.728;23.256;2022-09-12T13:31:55;4.15;;;3.40;;
57800;SDS011;43627;42.728;23.256;2022-09-12T13:34:25;4.93;;;2.95;;
57800;SDS011;43627;42.728;23.256;2022-09-12T13:37:00;3.43;;;3.13;;
57800;SDS011;43627;42.728;23.256;2022-09-12T13:42:47;4.85;;;3.70;;
57800;SDS011;43627;42.728;23.256;2022-09-12T13:45:24;4.32;;;3.92;;
57800;SDS011;43627;42.728;23.256;2022-09-12T13:47:56;4.72;;;4.22;;
57800;SDS011;43627;42.728;23.256;2022-09-12T13:50:27;6.03;;;4.38;;
57800;SDS011;43627;42.728;23.256;2022-09-12T13:52:58;5.32;;;4.40;;
57800;SDS011;43627;42.728;23.256;2022-09-12T13:55:31;4.15;;;3.75;;
57800;SDS011;43627;42.728;23.256;2022-09-12T13:58:03;4.10;;;3.70;;
57800;SDS011;43627;42.728;23.256;2022-09-12T14:00:32;5.15;;;4.38;;
57800;SDS011;43627;42.728;23.256;2022-09-12T14:03:00;5.95;;;3.85;;
57800;SDS011;43627;42.728;23.256;2022-09-12T14:05:57;4.35;;;3.95;;
57800;SDS011;43627;42.728;23.256;2022-09-12T14:08:24;6.10;;;4.18;;
57800;SDS011;43627;42.728;23.256;2022-09-12T14:10:52;4.50;;;4.10;;
57800;SDS011;43627;42.728;23.256;2022-09-12T14:13:21;4.10;;;3.60;;
57800;SDS011;43627;42.728;23.256;2022-09-12T14:15:50;4.78;;;4.15;;
57800;SDS011;43627;42.728;23.256;2022-09-12T14:18:31;3.70;;;3.40;;
57800;SDS011;43627;42.728;23.256;2022-09-12T14:21:08;9.60;;;3.95;;
57800;SDS011;43627;42.728;23.256;2022-09-12T14:23:39;16.67;;;4.07;;
57800;SDS011;43627;42.728;23.256;2022-09-12T14:26:11;5.15;;;3.88;;
57800;SDS011;43627;42.728;23.256;2022-09-12T14:28:39;5.43;;;3.55;;
57800;SDS011;43627;42.728;23.256;2022-09-12T14:36:19;4.78;;;3.90;;
57800;SDS011;43627;42.728;23.256;2022-09-12T14:38:58;4.40;;;3.90;;
57800;SDS011;43627;42.728;23.256;2022-09-12T14:41:32;4.50;;;3.45;;
57800;SDS011;43627;42.728;23.256;2022-09-12T14:44:03;3.75;;;3.35;;
57800;SDS011;43627;42.728;23.256;2022-09-12T14:46:34;5.60;;;3.38;;
57800;SDS011;43627;42.728;23.256;2022-09-12T14:49:15;4.20;;;3.63;;
57800;SDS011;43627;42.728;23.256;2022-09-12T14:56:59;4.63;;;3.58;;
57800;SDS011;43627;42.728;23.256;2022-09-12T15:04:49;5.50;;;3.45;;
57800;SDS011;43627;42.728;23.256;2022-09-12T15:07:33;4.20;;;3.67;;
57800;SDS011;43627;42.728;23.256;2022-09-12T15:10:24;5.82;;;3.72;;
57800;SDS011;43627;42.728;23.256;2022-09-12T15:13:04;4.22;;;3.88;;
57800;SDS011;43627;42.728;23.256;2022-09-12T15:15:35;4.40;;;4.00;;
57800;SDS011;43627;42.728;23.256;2022-09-12T15:18:03;5.65;;;4.10;;
57800;SDS011;43627;42.728;23.256;2022-09-12T15:20:35;4.60;;;4.20;;
57800;SDS011;43627;42.728;23.256;2022-09-12T15:23:05;4.90;;;4.40;;
57800;SDS011;43627;42.728;23.256;2022-09-12T15:28:04;7.55;;;4.72;;
57800;SDS011;43627;42.728;23.256;2022-09-12T15:30:41;8.15;;;4.70;;
57800;SDS011;43627;42.728;23.256;2022-09-12T15:33:09;4.18;;;3.60;;
57800;SDS011;43627;42.728;23.256;2022-09-12T15:35:37;5.93;;;4.78;;
57800;SDS011;43627;42.728;23.256;2022-09-12T15:38:04;4.00;;;3.70;;
57800;SDS011;43627;42.728;23.256;2022-09-12T15:40:31;3.90;;;3.50;;
57800;SDS011;43627;42.728;23.256;2022-09-12T15:42:57;6.22;;;3.70;;
57800;SDS011;43627;42.728;23.256;2022-09-12T15:45:28;4.07;;;3.67;;
57800;SDS011;43627;42.728;23.256;2022-09-12T15:50:25;4.60;;;4.03;;
57800;SDS011;43627;42.728;23.256;2022-09-12T15:52:53;5.03;;;4.53;;
57800;SDS011;43627;42.728;23.256;2022-09-12T15:55:22;5.80;;;4.85;;
57800;SDS011;43627;42.728;23.256;2022-09-12T15:57:50;5.82;;;4.43;;
57800;SDS011;43627;42.728;23.256;2022-09-12T16:00:17;5.22;;;4.18;;
57800;SDS011;43627;42.728;23.256;2022-09-12T16:02:45;5.38;;;4.32;;
57800;SDS011;43627;42.728;23.256;2022-09-12T16:05:16;4.55;;;3.85;;
57800;SDS011;43627;42.728;23.256;2022-09-12T16:07:46;6.03;;;4.03;;
57800;SDS011;43627;42.728;23.256;2022-09-12T16:10:15;5.10;;;4.60;;
57800;SDS011;43627;42.728;23.256;2022-09-12T16:12:45;6.47;;;4.07;;
57800;SDS011;43627;42.728;23.256;2022-09-12T16:15:13;6.35;;;4.80;;
57800;SDS011;43627;42.728;23.256;2022-09-12T16:17:41;5.65;;;4.47;;
57800;SDS011;43627;42.728;23.256;2022-09-12T16:20:08;5.90;;;4.35;;
57800;SDS011;43627;42.728;23.256;2022-09-12T16:22:36;7.00;;;4.15;;
57800;SDS011;43627;42.728;23.256;2022-09-12T16:25:03;4.47;;;3.72;;
57800;SDS011;43627;42.728;23.256;2022-09-12T16:27:31;5.57;;;4.53;;
57800;SDS011;43627;42.728;23.256;2022-09-12T16:29:58;5.13;;;4.15;;
57800;SDS011;43627;42.728;23.256;2022-09-12T16:32:25;4.38;;;3.97;;
57800;SDS011;43627;42.728;23.256;2022-09-12T16:34:52;6.40;;;4.50;;
57800;SDS011;43627;42.728;23.256;2022-09-12T16:37:19;4.72;;;4.28;;
57800;SDS011;43627;42.728;23.256;2022-09-12T16:39:45;5.13;;;4.50;;
57800;SDS011;43627;42.728;23.256;2022-09-12T16:42:17;4.85;;;4.45;;
57800;SDS011;43627;42.728;23.256;2022-09-12T16:44:45;4.93;;;4.43;;
57800;SDS011;43627;42.728;23.256;2022-09-12T16:47:12;10.98;;;4.15;;
57800;SDS011;43627;42.728;23.256;2022-09-12T16:49:39;5.95;;;4.75;;
57800;SDS011;43627;42.728;23.256;2022-09-12T16:52:06;4.55;;;4.15;;
57800;SDS011;43627;42.728;23.256;2022-09-12T16:54:33;6.05;;;4.20;;
57800;SDS011;43627;42.728;23.256;2022-09-12T16:56:59;6.03;;;5.32;;
57800;SDS011;43627;42.728;23.256;2022-09-12T16:59:28;6.05;;;4.70;;
57800;SDS011;43627;42.728;23.256;2022-09-12T17:01:55;7.32;;;4.80;;
57800;SDS011;43627;42.728;23.256;2022-09-12T17:04:21;5.28;;;4.78;;
57800;SDS011;43627;42.728;23.256;2022-09-12T17:06:49;7.22;;;5.57;;
57800;SDS011;43627;42.728;23.256;2022-09-12T17:09:15;5.63;;;5.07;;
57800;SDS011;43627;42.728;23.256;2022-09-12T17:11:44;6.40;;;4.97;;
57800;SDS011;43627;42.728;23.256;2022-09-12T17:14:15;6.90;;;4.55;;
57800;SDS011;43627;42.728;23.256;2022-09-12T17:16:43;6.45;;;5.00;;
57800;SDS011;43627;42.728;23.256;2022-09-12T17:19:18;7.18;;;4.53;;
57800;SDS011;43627;42.728;23.256;2022-09-12T17:21:46;7.35;;;6.10;;
57800;SDS011;43627;42.728;23.256;2022-09-12T17:24:15;6.00;;;5.13;;
57800;SDS011;43627;42.728;23.256;2022-09-12T17:26:43;10.13;;;6.07;;